X  Fermer Données météorologiques d'aviation de Metar     LZPP Piešťany Airport
Température
20°C Température
18°C Point de rosée
88% Humidité



Vent
16 KM/H
10 MPH
4 M/S
9 KTS



10°
N
Conditions actuelles

Légère  Pluie Légère Pluie
Pression 1012.87 (hPa) - 29.91 (inHg)
Visibilité 6 (mile) - 9.7 (km)
Aéroport
Code de l'aéroport LZPP

Emplacement: Piešťany Airport
Distance: 31 (km)

Metar:
LZPP 220630Z 01009KT 310V030 9999 -RA FEW025 SCT045 20/18 Q1013

Temps: 22-06-2024 08:30 CEST